Norbank — PGIS — position and weather

sailwx.info

Track history (hours):
 
Tides and Currents Weather Stations Pressure Air Temp Water Temp Dewpoint Dewpoint Depression Visibility Wind Speed Wind Dir Waves Ship Positions

Norbank

Operator: P & O Ferries

Last reported at 2015-Jan-27 00:05 UTC. Time now 2015-Jan-27 14:29 UTC.
Position N 53°33' W 003°54'.

Length 167 m; draft 5.8 m.

Type: Ship (hazmat cat A). MMSI: 246213000.

Date/timePositionNaut miles runAvg speedWind from/ knotsBaromVisibWave heightAir tempDewpointWater temp
2015-Jan-27 00:05N 53°33' W 003°54'1017.5
2015-Jan-26 23:32N 53°33' W 003°37'1716.9
2015-Jan-26 22:33N 53°32' W 003°10'7 6.9
2015-Jan-26 21:34N 53°27' W 003°01'0 0.3
2015-Jan-26 20:16N 53°27' W 003°01'0 0.0
2015-Jan-26 19:33N 53°27' W 003°01'0 0.0
2015-Jan-26 18:33N 53°27' W 003°01'0 0.0
2015-Jan-26 17:32N 53°27' W 003°01'0 0.0
2015-Jan-26 16:26N 53°27' W 003°01'0 0.0
2015-Jan-26 15:32N 53°27' W 003°01'0 0.0
2015-Jan-26 14:25N 53°27' W 003°01'0 0.0
2015-Jan-26 13:31N 53°27' W 003°01'0 0.0
2015-Jan-26 12:30N 53°27' W 003°01'0 0.0
2015-Jan-26 11:30N 53°27' W 003°01'0 0.0
2015-Jan-26 10:29N 53°27' W 003°01'0 0.0
2015-Jan-26 09:11N 53°27' W 003°01'0 0.0
2015-Jan-26 08:22N 53°27' W 003°01'0 0.0
2015-Jan-26 07:28N 53°27' W 003°01'0 0.1
2015-Jan-26 06:28N 53°27' W 003°01'0 0.5
2015-Jan-26 05:33N 53°27' W 003°02'8 8.3
2015-Jan-26 04:34N 53°31' W 003°14'1312.9
2015-Jan-26 03:33N 53°31' W 003°36'1414.0
2015-Jan-26 02:32N 53°33' W 003°59'3 0.2
2015-Jan-25 12:32N 53°34' W 003°54'1717.7
2015-Jan-25 11:33N 53°33' W 003°25'1514.7
2015-Jan-25 10:33N 53°27' W 003°02'1 0.5
2015-Jan-25 09:21N 53°27' W 003°01'0 0.0
2015-Jan-25 08:32N 53°27' W 003°01'0 0.0
2015-Jan-25 07:32N 53°27' W 003°01'0 0.0
2015-Jan-25 06:07N 53°27' W 003°01'0 0.0
2015-Jan-25 05:31N 53°27' W 003°01'1 0.6
2015-Jan-25 04:33N 53°27' W 003°01'1313.3
2015-Jan-25 03:33N 53°31' W 003°22'1716.5
2015-Jan-25 02:31N 53°32' W 003°51'5 0.4
2015-Jan-24 12:33N 53°33' W 003°43'1817.8
2015-Jan-24 11:33N 53°31' W 003°13'8 8.3
2015-Jan-24 10:33N 53°27' W 003°01'1 0.7
2015-Jan-24 09:32N 53°27' W 003°01'0 0.0
2015-Jan-24 08:31N 53°27' W 003°01'0 0.0
2015-Jan-24 07:31N 53°27' W 003°01'0 0.0
2015-Jan-24 06:30N 53°27' W 003°01'0 0.0
2015-Jan-24 05:30N 53°27' W 003°01'1 0.6
2015-Jan-24 04:33N 53°27' W 003°01'1313.3
2015-Jan-24 03:33N 53°31' W 003°22'1917.7
2015-Jan-24 02:30N 53°32' W 003°53'10 0.7
2015-Jan-23 13:11N 53°34' W 004°10'1117.7
2015-Jan-23 12:33N 53°34' W 003°51'1717.4
2015-Jan-23 11:33N 53°32' W 003°22'1313.1
2015-Jan-23 10:33N 53°27' W 003°01'1 0.6
2015-Jan-23 09:21N 53°27' W 003°01'0 0.0
2015-Jan-23 08:33N 53°27' W 003°01'0 0.0
2015-Jan-23 07:32N 53°27' W 003°01'0 0.0
2015-Jan-23 06:32N 53°27' W 003°01'0 0.0
2015-Jan-23 05:31N 53°27' W 003°01'1 0.6
2015-Jan-23 04:33N 53°27' W 003°01'1312.7
2015-Jan-23 03:33N 53°31' W 003°21'1815.0
2015-Jan-23 02:20N 53°32' W 003°52'3 0.2
2015-Jan-22 12:21N 53°34' W 003°55'1518.9
2015-Jan-22 11:33N 53°33' W 003°30'1716.7
2015-Jan-22 10:33N 53°28' W 003°03'2 1.6
2015-Jan-22 09:33N 53°27' W 003°01'0 0.3
2015-Jan-22 08:29N 53°27' W 003°01'0 0.0
2015-Jan-22 07:29N 53°27' W 003°01'0 0.0
2015-Jan-22 06:28N 53°27' W 003°01'0 0.0
2015-Jan-22 05:28N 53°27' W 003°01'1 0.6
2015-Jan-22 04:33N 53°27' W 003°01'1110.9
2015-Jan-22 03:33N 53°31' W 003°18'1717.4
2015-Jan-22 02:33N 53°31' W 003°47'5 0.3
2015-Jan-21 12:20N 53°33' W 003°54'1519.4
2015-Jan-21 11:34N 53°33' W 003°29'1616.3
2015-Jan-21 10:33N 53°28' W 003°03'2 2.1
2015-Jan-21 09:33N 53°27' W 003°01'1 0.9
2015-Jan-21 08:33N 53°27' W 003°01'0 0.0
2015-Jan-21 07:32N 53°27' W 003°01'0 0.0
2015-Jan-21 06:26N 53°27' W 003°01'0 0.0
2015-Jan-21 05:31N 53°27' W 003°01'1 0.6
2015-Jan-21 04:33N 53°27' W 003°01'1212.0
2015-Jan-21 03:33N 53°31' W 003°20'2018.7
2015-Jan-21 02:31N 53°32' W 003°53'4 0.3
2015-Jan-20 12:34N 53°35' W 003°48'2019.7
2015-Jan-20 11:33N 53°31' W 003°15'1010.2
2015-Jan-20 10:33N 53°26' W 003°01'1 1.0
2015-Jan-20 09:27N 53°27' W 003°01'0 0.0
2015-Jan-20 08:32N 53°27' W 003°01'0 0.0
2015-Jan-20 07:32N 53°27' W 003°01'0 0.0
2015-Jan-20 06:31N 53°27' W 003°01'0 0.4
2015-Jan-20 05:31N 53°27' W 003°01'2 2.0
2015-Jan-20 04:33N 53°28' W 003°04'9 9.2
2015-Jan-20 03:32N 53°31' W 003°18'1615.9
2015-Jan-20 02:32N 53°31' W 003°45'5 0.2
2015-Jan-19 01:14N 53°34' W 003°53'1521.7
2015-Jan-19 00:32N 53°33' W 003°27'1616.6
2015-Jan-18 23:33N 53°27' W 003°02'1 0.7
2015-Jan-18 22:33N 53°27' W 003°01'0 0.0
2015-Jan-18 21:32N 53°27' W 003°01'0 0.0
2015-Jan-18 20:32N 53°27' W 003°01'0 0.0
2015-Jan-18 19:20N 53°27' W 003°01'0 0.0
2015-Jan-18 18:25N 53°27' W 003°01'0 0.0
2015-Jan-18 17:31N 53°27' W 003°01'0 0.0
2015-Jan-18 16:34N 53°27' W 003°01'0 0.4
2015-Jan-18 15:34N 53°27' W 003°01'1110.7
2015-Jan-18 14:33N 53°31' W 003°18'1817.8
2015-Jan-18 13:33N 53°32' W 003°48'1918.8
2015-Jan-18 12:31N 53°35' W 004°20'16 1.3
2015-Jan-18 00:31N 53°33' W 003°53'2121.4
2015-Jan-17 23:33N 53°32' W 003°19'1211.6
2015-Jan-17 22:33N 53°27' W 003°01'0 0.4
2015-Jan-17 21:24N 53°27' W 003°01'0 0.0
2015-Jan-17 20:30N 53°27' W 003°01'0 0.0
2015-Jan-17 19:17N 53°27' W 003°01'0 0.0
2015-Jan-17 18:29N 53°27' W 003°01'0 0.0
2015-Jan-17 17:23N 53°27' W 003°01'0 0.5
2015-Jan-17 16:29N 53°27' W 003°01'5 5.8
2015-Jan-17 15:33N 53°31' W 003°07'1817.9
2015-Jan-17 14:33N 53°31' W 003°37'2020.0
2015-Jan-17 13:33N 53°34' W 004°10'13 1.0
2015-Jan-17 00:33N 53°33' W 003°48'  
Track history (hours):
 
Tides and Currents Weather Stations Pressure Air Temp Water Temp Dewpoint Dewpoint Depression Visibility Wind Speed Wind Dir Waves Ship Positions

Norbank

Operator: P & O Ferries

Last reported at 2015-Jan-27 00:05 UTC. Time now 2015-Jan-27 14:29 UTC.
Position N 53°33' W 003°54'.

Length 167 m; draft 5.8 m.

Type: Ship (hazmat cat A). MMSI: 246213000.

Date/timePositionNaut miles runAvg speedWind from/ knotsBaromVisibWave heightAir tempDewpointWater temp
2015-Jan-27 00:05N 53°33' W 003°54'1017.5
2015-Jan-26 23:32N 53°33' W 003°37'1716.9
2015-Jan-26 22:33N 53°32' W 003°10'7 6.9
2015-Jan-26 21:34N 53°27' W 003°01'0 0.3
2015-Jan-26 20:16N 53°27' W 003°01'0 0.0
2015-Jan-26 19:33N 53°27' W 003°01'0 0.0
2015-Jan-26 18:33N 53°27' W 003°01'0 0.0
2015-Jan-26 17:32N 53°27' W 003°01'0 0.0
2015-Jan-26 16:26N 53°27' W 003°01'0 0.0
2015-Jan-26 15:32N 53°27' W 003°01'0 0.0
2015-Jan-26 14:25N 53°27' W 003°01'0 0.0
2015-Jan-26 13:31N 53°27' W 003°01'0 0.0
2015-Jan-26 12:30N 53°27' W 003°01'0 0.0
2015-Jan-26 11:30N 53°27' W 003°01'0 0.0
2015-Jan-26 10:29N 53°27' W 003°01'0 0.0
2015-Jan-26 09:11N 53°27' W 003°01'0 0.0
2015-Jan-26 08:22N 53°27' W 003°01'0 0.0
2015-Jan-26 07:28N 53°27' W 003°01'0 0.1
2015-Jan-26 06:28N 53°27' W 003°01'0 0.5
2015-Jan-26 05:33N 53°27' W 003°02'8 8.3
2015-Jan-26 04:34N 53°31' W 003°14'1312.9
2015-Jan-26 03:33N 53°31' W 003°36'1414.0
2015-Jan-26 02:32N 53°33' W 003°59'3 0.2
2015-Jan-25 12:32N 53°34' W 003°54'1717.7
2015-Jan-25 11:33N 53°33' W 003°25'1514.7
2015-Jan-25 10:33N 53°27' W 003°02'1 0.5
2015-Jan-25 09:21N 53°27' W 003°01'0 0.0
2015-Jan-25 08:32N 53°27' W 003°01'0 0.0
2015-Jan-25 07:32N 53°27' W 003°01'0 0.0
2015-Jan-25 06:07N 53°27' W 003°01'0 0.0
2015-Jan-25 05:31N 53°27' W 003°01'1 0.6
2015-Jan-25 04:33N 53°27' W 003°01'1313.3
2015-Jan-25 03:33N 53°31' W 003°22'1716.5
2015-Jan-25 02:31N 53°32' W 003°51'5 0.4
2015-Jan-24 12:33N 53°33' W 003°43'1817.8
2015-Jan-24 11:33N 53°31' W 003°13'8 8.3
2015-Jan-24 10:33N 53°27' W 003°01'1 0.7
2015-Jan-24 09:32N 53°27' W 003°01'0 0.0
2015-Jan-24 08:31N 53°27' W 003°01'0 0.0
2015-Jan-24 07:31N 53°27' W 003°01'0 0.0
2015-Jan-24 06:30N 53°27' W 003°01'0 0.0
2015-Jan-24 05:30N 53°27' W 003°01'1 0.6
2015-Jan-24 04:33N 53°27' W 003°01'1313.3
2015-Jan-24 03:33N 53°31' W 003°22'1917.7
2015-Jan-24 02:30N 53°32' W 003°53'10 0.7
2015-Jan-23 13:11N 53°34' W 004°10'1117.7
2015-Jan-23 12:33N 53°34' W 003°51'1717.4
2015-Jan-23 11:33N 53°32' W 003°22'1313.1
2015-Jan-23 10:33N 53°27' W 003°01'1 0.6
2015-Jan-23 09:21N 53°27' W 003°01'0 0.0
2015-Jan-23 08:33N 53°27' W 003°01'0 0.0
2015-Jan-23 07:32N 53°27' W 003°01'0 0.0
2015-Jan-23 06:32N 53°27' W 003°01'0 0.0
2015-Jan-23 05:31N 53°27' W 003°01'1 0.6
2015-Jan-23 04:33N 53°27' W 003°01'1312.7
2015-Jan-23 03:33N 53°31' W 003°21'1815.0
2015-Jan-23 02:20N 53°32' W 003°52'3 0.2
2015-Jan-22 12:21N 53°34' W 003°55'1518.9
2015-Jan-22 11:33N 53°33' W 003°30'1716.7
2015-Jan-22 10:33N 53°28' W 003°03'2 1.6
2015-Jan-22 09:33N 53°27' W 003°01'0 0.3
2015-Jan-22 08:29N 53°27' W 003°01'0 0.0
2015-Jan-22 07:29N 53°27' W 003°01'0 0.0
2015-Jan-22 06:28N 53°27' W 003°01'0 0.0
2015-Jan-22 05:28N 53°27' W 003°01'1 0.6
2015-Jan-22 04:33N 53°27' W 003°01'1110.9
2015-Jan-22 03:33N 53°31' W 003°18'1717.4
2015-Jan-22 02:33N 53°31' W 003°47'5 0.3
2015-Jan-21 12:20N 53°33' W 003°54'1519.4
2015-Jan-21 11:34N 53°33' W 003°29'1616.3
2015-Jan-21 10:33N 53°28' W 003°03'2 2.1
2015-Jan-21 09:33N 53°27' W 003°01'1 0.9
2015-Jan-21 08:33N 53°27' W 003°01'0 0.0
2015-Jan-21 07:32N 53°27' W 003°01'0 0.0
2015-Jan-21 06:26N 53°27' W 003°01'0 0.0
2015-Jan-21 05:31N 53°27' W 003°01'1 0.6
2015-Jan-21 04:33N 53°27' W 003°01'1212.0
2015-Jan-21 03:33N 53°31' W 003°20'2018.7
2015-Jan-21 02:31N 53°32' W 003°53'4 0.3
2015-Jan-20 12:34N 53°35' W 003°48'2019.7
2015-Jan-20 11:33N 53°31' W 003°15'1010.2
2015-Jan-20 10:33N 53°26' W 003°01'1 1.0
2015-Jan-20 09:27N 53°27' W 003°01'0 0.0
2015-Jan-20 08:32N 53°27' W 003°01'0 0.0
2015-Jan-20 07:32N 53°27' W 003°01'0 0.0
2015-Jan-20 06:31N 53°27' W 003°01'0 0.4
2015-Jan-20 05:31N 53°27' W 003°01'2 2.0
2015-Jan-20 04:33N 53°28' W 003°04'9 9.2
2015-Jan-20 03:32N 53°31' W 003°18'1615.9
2015-Jan-20 02:32N 53°31' W 003°45'5 0.2
2015-Jan-19 01:14N 53°34' W 003°53'1521.7
2015-Jan-19 00:32N 53°33' W 003°27'1616.6
2015-Jan-18 23:33N 53°27' W 003°02'1 0.7
2015-Jan-18 22:33N 53°27' W 003°01'0 0.0
2015-Jan-18 21:32N 53°27' W 003°01'0 0.0
2015-Jan-18 20:32N 53°27' W 003°01'0 0.0
2015-Jan-18 19:20N 53°27' W 003°01'0 0.0
2015-Jan-18 18:25N 53°27' W 003°01'0 0.0
2015-Jan-18 17:31N 53°27' W 003°01'0 0.0
2015-Jan-18 16:34N 53°27' W 003°01'0 0.4
2015-Jan-18 15:34N 53°27' W 003°01'1110.7
2015-Jan-18 14:33N 53°31' W 003°18'1817.8
2015-Jan-18 13:33N 53°32' W 003°48'1918.8
2015-Jan-18 12:31N 53°35' W 004°20'16 1.3
2015-Jan-18 00:31N 53°33' W 003°53'2121.4
2015-Jan-17 23:33N 53°32' W 003°19'1211.6
2015-Jan-17 22:33N 53°27' W 003°01'0 0.4
2015-Jan-17 21:24N 53°27' W 003°01'0 0.0
2015-Jan-17 20:30N 53°27' W 003°01'0 0.0
2015-Jan-17 19:17N 53°27' W 003°01'0 0.0
2015-Jan-17 18:29N 53°27' W 003°01'0 0.0
2015-Jan-17 17:23N 53°27' W 003°01'0 0.5
2015-Jan-17 16:29N 53°27' W 003°01'5 5.8
2015-Jan-17 15:33N 53°31' W 003°07'1817.9
2015-Jan-17 14:33N 53°31' W 003°37'2020.0
2015-Jan-17 13:33N 53°34' W 004°10'13 1.0
2015-Jan-17 00:33N 53°33' W 003°48'  

Dump ship's entire track history